RJNH(METAR)
04/28 17:00
METAR RJNH 280800Z 23019KT 9999 NSC 18/03 Q1005 RMK A2969=
戻る
トップページへ戻る
IMOC Co,.Ltd.